Accueil
METAR-TAF:

METAR-TAF

Aéroports :

Berlin, New Hampshire, États-Unis

latitude: 44-34-34N, longitude: 071-10-43W, altitude: 353 m

Observation

Le bulletin a été fait il y a 48 minutes, à 11:52 UTC
Vent 5 kt de nord-ouest
Température 8°C
Humidité 66%
Pression 1021 hPa
Visibilité: 16.1 km
Quelques nuages à une hauteur de 1900 ft
Quelques nuages à une hauteur de 2600 ft

METAR: KBML 011152Z AUTO 32005KT 10SM FEW019 FEW026 08/02 A3014 RMK AO2 SLP213 60000 70001 T00780022 10078 21017 50008

Heure: 08:40 (12:40 UTC)


TAF: absent

Observations et prévisions météorologiques de plus de 4000 aéroports (messages METAR et TAF).

Les stations disponibles sont représentées par des disques jaunes et rouges sur la carte.

Passer la souris dessus pour voir le nom de la station.

Cliquer dessus pour voir les observations et prévisions météorologiques.

Pour changer de carte: cliquez sur les boutons verts avec une croix noire pour zoomer, sur le bouton vert avec un tiret pour effectuer un zoom arrière, ou sur les flèches vertes pour les cartes adjacentes.


METAR-TAF: